Time;durP1;ratioP1;P1;durP2;ratioP2;P2;SDS_P1;SDS_P2;PMS_P1;PMS_P2;Temp;Humidity;BMP_temperature;BMP_pressure;BME280_temperature;BME280_humidity;BME280_pressure;Samples;Min_cycle;Max_cycle;Signal;HPM_P1;HPM_P2
2022/10/28 00:01:41;;;;;;;;;;;22.90;41.80;;;;;;5103056;27;19966;-75
2022/10/28 00:04:08;;;;;;;;;;;22.90;42.30;;;;;;5106482;28;19927;-75
2022/10/28 00:06:34;;;;;;;;;;;22.80;39.40;;;;;;5078205;28;19951;-74
2022/10/28 00:09:01;;;;;;;;;;;22.80;39.60;;;;;;5094391;28;20002;-74
2022/10/28 00:11:29;;;;;;;;;;;22.90;39.90;;;;;;5094878;28;19916;-75
2022/10/28 00:13:57;;;;;;;;;;;22.90;40.50;;;;;;5092001;28;19912;-75
2022/10/28 00:16:24;;;;;;;;;;;22.90;40.90;;;;;;5092896;28;19908;-72
2022/10/28 00:18:52;;;;;;;;;;;23.00;40.50;;;;;;5110606;28;20285;-73
2022/10/28 00:21:21;;;;;;;;;;;23.00;40.90;;;;;;5111112;28;20381;-73
2022/10/28 00:23:48;;;;;;;;;;;23.00;42.20;;;;;;5113780;28;19908;-73
2022/10/28 00:26:21;;;;;;;;;;;23.00;40.40;;;;;;5113011;28;19919;-73
2022/10/28 00:28:55;;;;;;;;;;;23.10;39.90;;;;;;5096453;28;19947;-73
2022/10/28 00:31:22;;;;;;;;;;;23.10;40.20;;;;;;5114618;28;20002;-73
2022/10/28 00:33:48;;;;;;;;;;;23.20;40.70;;;;;;5114177;28;19920;-73
2022/10/28 00:36:31;;;;;;;;;;;23.20;40.40;;;;;;5114523;28;19908;-74
2022/10/28 00:38:58;;;;;;;;;;;23.30;41.10;;;;;;5114464;28;20036;-73
2022/10/28 00:41:28;;;;;;;;;;;23.30;39.30;;;;;;5114393;28;19954;-72
2022/10/28 00:43:56;;;;;;;;;;;23.30;40.40;;;;;;5096264;28;19950;-73
2022/10/28 00:46:42;;;;;;;;;;;23.30;39.60;;;;;;5121035;27;19972;-73
2022/10/28 00:49:12;;;;;;;;;;;23.40;39.40;;;;;;5116692;27;19955;-73
2022/10/28 00:51:38;;;;;;;;;;;23.30;39.50;;;;;;5135068;27;20314;-73
2022/10/28 00:54:05;;;;;;;;;;;23.30;40.50;;;;;;5116836;27;19915;-73
2022/10/28 00:56:32;;;;;;;;;;;23.30;40.00;;;;;;5116701;27;19918;-73
2022/10/28 00:59:00;;;;;;;;;;;23.30;39.00;;;;;;5134474;27;19930;-72
2022/10/28 05:25:07;;;;;;;;;;;23.30;33.40;;;;;;5105466;27;19941;-73
2022/10/28 05:27:33;;;;;;;;;;;23.30;34.30;;;;;;5134422;27;19939;-73
2022/10/28 05:30:00;;;;;;;;;;;23.40;33.70;;;;;;5119951;27;19914;-72
2022/10/28 05:32:27;;;;;;;;;;;23.30;34.10;;;;;;5121330;27;19912;-72
2022/10/28 05:34:53;;;;;;;;;;;23.30;34.50;;;;;;5106454;27;19916;-72
2022/10/28 05:37:20;;;;;;;;;;;23.30;33.90;;;;;;5133807;27;19981;-65
2022/10/28 05:39:46;;;;;;;;;;;23.30;35.40;;;;;;5120370;27;19925;-69
2022/10/28 05:42:13;;;;;;;;;;;23.30;33.70;;;;;;5117585;27;19920;-67
2022/10/28 05:44:40;;;;;;;;;;;23.30;34.60;;;;;;5119649;27;20388;-69
2022/10/28 05:47:06;;;;;;;;;;;23.30;34.70;;;;;;5125154;27;20001;-69
2022/10/28 05:49:33;;;;;;;;;;;23.30;34.00;;;;;;5097195;27;19916;-68
2022/10/28 05:51:59;;;;;;;;;;;23.30;33.60;;;;;;5090409;28;20329;-68
2022/10/28 05:54:26;;;;;;;;;;;23.30;34.20;;;;;;5100316;27;19937;-68
2022/10/28 05:56:52;;;;;;;;;;;23.30;34.30;;;;;;5130385;27;20278;-68
2022/10/28 05:59:19;;;;;;;;;;;23.30;34.30;;;;;;5126870;27;19918;-68
2022/10/28 06:01:46;;;;;;;;;;;23.20;34.30;;;;;;5121425;27;19943;-69
2022/10/28 06:04:12;;;;;;;;;;;23.20;33.80;;;;;;5112530;27;19915;-69
2022/10/28 06:06:39;;;;;;;;;;;23.20;34.70;;;;;;5102237;27;19919;-67
2022/10/28 06:09:05;;;;;;;;;;;23.20;33.60;;;;;;5131137;27;19922;-67
2022/10/28 06:11:33;;;;;;;;;;;23.10;33.50;;;;;;5119197;27;19923;-68
2022/10/28 06:14:00;;;;;;;;;;;23.20;33.10;;;;;;5101684;27;19951;-67
2022/10/28 06:16:26;;;;;;;;;;;23.10;32.90;;;;;;5127630;27;20462;-68
2022/10/28 06:18:53;;;;;;;;;;;23.10;32.30;;;;;;5130533;27;19912;-68
2022/10/28 06:21:20;;;;;;;;;;;23.00;32.70;;;;;;5125269;27;19954;-68
2022/10/28 06:23:47;;;;;;;;;;;23.00;32.50;;;;;;5121199;27;19920;-68
2022/10/28 06:26:13;;;;;;;;;;;22.90;32.10;;;;;;5098409;27;19912;-68
2022/10/28 06:28:40;;;;;;;;;;;22.90;32.60;;;;;;5128020;27;20365;-67
2022/10/28 06:31:08;;;;;;;;;;;22.90;32.80;;;;;;5124301;27;20304;-67
2022/10/28 06:33:34;;;;;;;;;;;22.90;33.00;;;;;;5126119;27;19919;-68
2022/10/28 06:36:01;;;;;;;;;;;22.90;33.20;;;;;;5120040;27;19915;-71
2022/10/28 06:38:28;;;;;;;;;;;22.80;33.30;;;;;;5123613;27;19958;-68
2022/10/28 06:40:56;;;;;;;;;;;22.80;33.60;;;;;;5116047;27;20255;-67
2022/10/28 06:43:23;;;;;;;;;;;22.80;34.00;;;;;;5124348;27;20595;-68
2022/10/28 06:45:54;;;;;;;;;;;22.80;33.80;;;;;;5116507;27;19917;-68
2022/10/28 06:48:20;;;;;;;;;;;22.80;33.30;;;;;;5130631;27;19922;-68
2022/10/28 06:50:47;;;;;;;;;;;22.70;33.80;;;;;;5126705;27;20000;-67
2022/10/28 06:55:39;;;;;;;;;;;22.70;34.10;;;;;;5100238;27;19930;-68
2022/10/28 06:58:05;;;;;;;;;;;22.60;33.70;;;;;;5128580;28;19915;-68
2022/10/28 07:00:32;;;;;;;;;;;22.60;34.00;;;;;;5127112;28;20272;-70
2022/10/28 07:02:59;;;;;;;;;;;22.60;33.60;;;;;;5127959;28;19911;-69
2022/10/28 07:05:26;;;;;;;;;;;22.60;34.10;;;;;;5127916;28;19915;-69
2022/10/28 07:07:52;;;;;;;;;;;22.60;34.70;;;;;;5129631;28;19912;-69
2022/10/28 07:10:19;;;;;;;;;;;22.60;34.20;;;;;;5113547;28;20258;-68
2022/10/28 07:12:46;;;;;;;;;;;22.50;34.10;;;;;;5104576;28;19918;-69
2022/10/28 07:15:13;;;;;;;;;;;22.50;34.60;;;;;;5108930;28;19927;-69
2022/10/28 07:17:39;;;;;;;;;;;22.50;34.70;;;;;;5089669;28;19943;-69
2022/10/28 07:20:07;;;;;;;;;;;22.50;34.30;;;;;;5115046;28;20424;-69
2022/10/28 07:22:33;;;;;;;;;;;22.40;34.00;;;;;;5116003;28;19912;-69
2022/10/28 07:25:00;;;;;;;;;;;22.30;33.80;;;;;;5113460;28;19922;-68
2022/10/28 07:27:26;;;;;;;;;;;22.30;34.30;;;;;;5114156;28;19919;-68
2022/10/28 07:29:53;;;;;;;;;;;22.30;34.30;;;;;;5114287;28;20441;-69
2022/10/28 07:32:20;;;;;;;;;;;22.30;34.60;;;;;;5115670;28;19969;-69
2022/10/28 07:34:46;;;;;;;;;;;22.30;35.50;;;;;;5119235;28;19919;-70
2022/10/28 07:37:13;;;;;;;;;;;22.30;35.30;;;;;;5098456;28;19915;-69
2022/10/28 07:39:39;;;;;;;;;;;22.20;34.00;;;;;;5081582;28;20381;-69
2022/10/28 07:42:06;;;;;;;;;;;22.20;34.70;;;;;;5101157;28;19919;-69
2022/10/28 07:44:33;;;;;;;;;;;22.20;34.80;;;;;;5123082;28;19957;-70
2022/10/28 07:46:59;;;;;;;;;;;22.20;35.30;;;;;;5122109;28;19960;-70
2022/10/28 07:49:26;;;;;;;;;;;22.20;35.00;;;;;;5110372;28;20037;-69
2022/10/28 07:51:52;;;;;;;;;;;22.20;34.90;;;;;;5108653;28;20373;-69
2022/10/28 07:54:19;;;;;;;;;;;22.00;34.50;;;;;;5107672;28;19928;-73
2022/10/28 07:56:45;;;;;;;;;;;22.00;34.80;;;;;;5088999;28;19924;-71
2022/10/28 07:59:12;;;;;;;;;;;22.00;35.00;;;;;;5092863;28;20395;-69
2022/10/28 08:01:39;;;;;;;;;;;22.00;35.00;;;;;;5092614;28;19969;-70
2022/10/28 08:04:05;;;;;;;;;;;21.90;35.80;;;;;;5091964;28;20393;-69
2022/10/28 08:06:32;;;;;;;;;;;21.90;36.00;;;;;;5091805;28;19935;-69
2022/10/28 08:08:59;;;;;;;;;;;21.90;35.60;;;;;;5092658;28;19908;-69
2022/10/28 08:11:25;;;;;;;;;;;21.80;35.40;;;;;;5091787;28;20314;-70
2022/10/28 08:13:52;;;;;;;;;;;21.80;34.90;;;;;;5083210;28;19924;-70
2022/10/28 08:16:19;;;;;;;;;;;21.80;35.50;;;;;;5091777;28;19923;-69
2022/10/28 08:18:46;;;;;;;;;;;21.70;34.90;;;;;;5091421;28;19912;-69
2022/10/28 08:21:12;;;;;;;;;;;21.70;35.50;;;;;;5092185;28;19920;-70
2022/10/28 08:23:40;;;;;;;;;;;21.70;34.60;;;;;;5091834;28;19931;-72
2022/10/28 08:26:07;;;;;;;;;;;21.60;35.40;;;;;;5071041;28;19916;-71
2022/10/28 08:28:33;;;;;;;;;;;21.50;35.50;;;;;;5109894;28;20332;-71
2022/10/28 08:31:01;;;;;;;;;;;21.50;35.80;;;;;;5112028;28;19915;-71
2022/10/28 08:33:27;;;;;;;;;;;21.50;35.70;;;;;;5092986;28;20010;-71
2022/10/28 08:35:54;;;;;;;;;;;21.40;35.50;;;;;;5090986;28;19923;-71
2022/10/28 08:38:20;;;;;;;;;;;21.40;36.00;;;;;;5100881;28;19914;-70
2022/10/28 08:40:57;;;;;;;;;;;21.30;36.10;;;;;;5111885;28;19912;-70
2022/10/28 08:43:33;;;;;;;;;;;21.30;36.20;;;;;;5092468;28;20007;-71
2022/10/28 08:46:01;;;;;;;;;;;21.30;35.90;;;;;;5064966;28;20007;-72
2022/10/28 08:48:30;;;;;;;;;;;21.20;37.00;;;;;;5104424;27;19911;-72
2022/10/28 08:51:05;;;;;;;;;;;21.20;36.20;;;;;;5129378;27;19958;-71
2022/10/28 08:53:36;;;;;;;;;;;21.20;36.60;;;;;;5114198;27;19923;-75
2022/10/28 08:56:08;;;;;;;;;;;21.20;37.00;;;;;;5130522;27;19908;-76
2022/10/28 08:58:34;;;;;;;;;;;21.10;36.10;;;;;;5101554;27;19922;-73
2022/10/28 09:01:01;;;;;;;;;;;21.10;36.30;;;;;;5128006;27;19955;-73
2022/10/28 09:03:38;;;;;;;;;;;21.00;36.40;;;;;;5114226;27;19916;-77
2022/10/28 09:06:05;;;;;;;;;;;21.00;37.30;;;;;;5113790;27;20284;-80
2022/10/28 09:08:33;;;;;;;;;;;20.90;36.50;;;;;;5097146;27;19965;-76
2022/10/28 09:11:12;;;;;;;;;;;21.00;36.80;;;;;;5114207;27;19912;-71
2022/10/28 09:13:42;;;;;;;;;;;21.00;36.60;;;;;;5106289;27;19951;-73
2022/10/28 09:16:14;;;;;;;;;;;20.90;37.40;;;;;;5131609;27;20397;-73
2022/10/28 09:18:51;;;;;;;;;;;20.90;38.00;;;;;;5118449;27;20387;-71
2022/10/28 09:21:19;;;;;;;;;;;20.90;38.20;;;;;;5124971;27;19920;-69
2022/10/28 09:23:51;;;;;;;;;;;20.80;37.30;;;;;;5132341;27;19940;-72
2022/10/28 09:28:57;;;;;;;;;;;20.80;37.80;;;;;;5110468;27;19930;-72
2022/10/28 09:31:27;;;;;;;;;;;20.80;38.10;;;;;;5123675;27;20322;-72
2022/10/28 09:33:58;;;;;;;;;;;20.80;38.80;;;;;;5103331;27;19966;-73
2022/10/28 09:36:27;;;;;;;;;;;20.80;38.00;;;;;;5113170;27;19915;-71
2022/10/28 09:38:54;;;;;;;;;;;20.80;38.20;;;;;;5092523;27;19911;-69
2022/10/28 09:41:22;;;;;;;;;;;20.80;38.70;;;;;;5097833;27;19916;-70
2022/10/28 09:43:50;;;;;;;;;;;20.70;37.90;;;;;;5096983;27;20454;-72
2022/10/28 09:46:19;;;;;;;;;;;20.70;38.50;;;;;;5112643;27;20025;-71
2022/10/28 09:48:49;;;;;;;;;;;20.70;38.40;;;;;;5108943;27;20634;-71
2022/10/28 09:51:21;;;;;;;;;;;20.70;39.10;;;;;;5109793;27;20433;-70
2022/10/28 09:53:50;;;;;;;;;;;20.70;39.20;;;;;;5096860;27;20072;-71
2022/10/28 09:56:16;;;;;;;;;;;20.70;39.10;;;;;;5112744;27;19914;-70
2022/10/28 09:58:46;;;;;;;;;;;20.70;39.40;;;;;;5101873;27;20639;-73
2022/10/28 10:01:18;;;;;;;;;;;20.70;40.50;;;;;;5126033;27;19981;-72
2022/10/28 10:03:48;;;;;;;;;;;20.70;40.20;;;;;;5093102;27;19915;-71
2022/10/28 10:06:19;;;;;;;;;;;20.60;40.40;;;;;;5112323;27;20284;-71
2022/10/28 10:08:46;;;;;;;;;;;20.60;41.00;;;;;;5126843;27;20396;-71
2022/10/28 10:11:14;;;;;;;;;;;20.50;40.00;;;;;;5114074;27;19924;-70
2022/10/28 10:13:41;;;;;;;;;;;20.50;40.10;;;;;;5118260;27;20010;-71
2022/10/28 10:16:08;;;;;;;;;;;20.50;40.80;;;;;;5112564;27;20025;-71
2022/10/28 10:18:35;;;;;;;;;;;20.40;40.00;;;;;;5106506;27;19911;-72
2022/10/28 10:21:02;;;;;;;;;;;20.40;40.70;;;;;;5112412;27;19907;-72
2022/10/28 10:23:30;;;;;;;;;;;20.40;41.00;;;;;;5116275;27;19967;-72
2022/10/28 10:25:58;;;;;;;;;;;20.40;40.30;;;;;;5130539;27;20344;-71
2022/10/28 10:28:25;;;;;;;;;;;20.30;40.70;;;;;;5101355;27;19924;-71
2022/10/28 10:30:52;;;;;;;;;;;20.30;41.10;;;;;;5105596;27;19920;-71
2022/10/28 10:33:43;;;;;;;;;;;20.30;41.60;;;;;;5121141;27;19907;-70
2022/10/28 10:36:09;;;;;;;;;;;20.20;42.20;;;;;;5114937;27;20401;-71
2022/10/28 10:38:36;;;;;;;;;;;20.20;42.40;;;;;;5113718;27;19935;-70
2022/10/28 10:41:03;;;;;;;;;;;20.20;43.00;;;;;;5115250;27;19915;-70
2022/10/28 10:43:30;;;;;;;;;;;20.10;43.30;;;;;;5120103;27;19918;-70
2022/10/28 10:46:04;;;;;;;;;;;20.10;42.30;;;;;;5113363;28;19912;-72
2022/10/28 10:48:33;;;;;;;;;;;20.10;42.80;;;;;;5106024;28;19918;-71
2022/10/28 10:51:03;;;;;;;;;;;20.10;42.70;;;;;;5092920;28;19915;-69
2022/10/28 10:53:30;;;;;;;;;;;20.10;42.30;;;;;;5087330;28;19970;-68
2022/10/28 10:56:01;;;;;;;;;;;20.20;41.20;;;;;;5117172;27;19929;-71
2022/10/28 10:58:29;;;;;;;;;;;20.10;41.80;;;;;;5085935;28;19926;-69
2022/10/28 11:00:57;;;;;;;;;;;20.00;41.00;;;;;;5099338;28;19908;-68
2022/10/28 11:03:26;;;;;;;;;;;20.00;40.60;;;;;;5093714;28;19919;-69
2022/10/28 11:05:54;;;;;;;;;;;20.00;40.10;;;;;;5087958;28;19961;-69
2022/10/28 11:08:31;;;;;;;;;;;20.10;41.00;;;;;;5112588;28;19954;-69
2022/10/28 11:11:15;;;;;;;;;;;20.00;40.50;;;;;;5090146;28;19916;-69
2022/10/28 11:13:42;;;;;;;;;;;20.00;41.10;;;;;;5098754;28;20365;-69
2022/10/28 11:16:27;;;;;;;;;;;20.00;41.00;;;;;;5113595;28;20361;-69
2022/10/28 11:18:53;;;;;;;;;;;20.00;41.00;;;;;;5106019;28;19959;-69
2022/10/28 11:21:20;;;;;;;;;;;20.10;41.30;;;;;;5108010;28;20532;-68
2022/10/28 11:23:59;;;;;;;;;;;20.00;41.40;;;;;;5104627;28;19908;-73
2022/10/28 11:26:25;;;;;;;;;;;20.00;41.30;;;;;;5106859;28;19918;-73
2022/10/28 11:28:52;;;;;;;;;;;20.00;41.90;;;;;;5083388;28;19930;-70
2022/10/28 11:31:33;;;;;;;;;;;20.00;42.20;;;;;;5107477;28;19912;-70
2022/10/28 11:34:18;;;;;;;;;;;19.90;42.50;;;;;;5097073;28;19916;-69
2022/10/28 11:37:08;;;;;;;;;;;19.90;42.10;;;;;;5115473;28;19969;-70
2022/10/28 11:39:37;;;;;;;;;;;19.90;42.60;;;;;;5110395;28;19959;-70
2022/10/28 11:42:16;;;;;;;;;;;19.90;43.00;;;;;;5094087;28;19911;-70
2022/10/28 11:44:44;;;;;;;;;;;19.90;43.10;;;;;;5109823;28;19912;-69
2022/10/28 11:47:29;;;;;;;;;;;19.80;43.20;;;;;;5121988;27;19951;-70
2022/10/28 11:50:01;;;;;;;;;;;19.80;43.70;;;;;;5112493;27;19907;-71
2022/10/28 11:52:49;;;;;;;;;;;19.80;42.80;;;;;;5100709;27;19915;-71
2022/10/28 11:55:44;;;;;;;;;;;19.70;42.90;;;;;;5117620;27;19916;-70
2022/10/28 11:58:20;;;;;;;;;;;19.70;42.90;;;;;;5126832;27;19911;-70
2022/10/28 12:01:09;;;;;;;;;;;19.70;43.20;;;;;;5110091;27;19951;-71
2022/10/28 12:03:42;;;;;;;;;;;19.70;43.60;;;;;;5064761;27;19919;-70
2022/10/28 12:06:24;;;;;;;;;;;19.60;43.90;;;;;;5091440;27;19912;-70
2022/10/28 12:08:58;;;;;;;;;;;19.60;44.50;;;;;;5136079;27;20389;-71
2022/10/28 12:11:37;;;;;;;;;;;19.50;44.80;;;;;;5086977;27;20374;-70
2022/10/28 12:14:09;;;;;;;;;;;19.50;45.30;;;;;;5133167;27;20388;-71
2022/10/28 12:16:41;;;;;;;;;;;19.50;45.20;;;;;;5135568;27;20381;-70
2022/10/28 12:19:13;;;;;;;;;;;19.50;45.50;;;;;;5135945;27;19915;-70
2022/10/28 12:21:43;;;;;;;;;;;19.50;45.40;;;;;;5114469;27;20376;-70
2022/10/28 12:24:14;;;;;;;;;;;19.40;45.70;;;;;;5107401;27;19911;-70
2022/10/28 12:26:45;;;;;;;;;;;19.50;46.20;;;;;;5112744;27;19923;-70
2022/10/28 12:29:25;;;;;;;;;;;19.40;46.40;;;;;;5117109;27;20331;-70
2022/10/28 12:31:53;;;;;;;;;;;19.40;45.90;;;;;;5086699;27;19920;-70
2022/10/28 12:34:22;;;;;;;;;;;19.30;45.60;;;;;;5116922;27;19923;-70
2022/10/28 12:36:50;;;;;;;;;;;19.30;46.00;;;;;;5112785;27;19916;-70
2022/10/28 12:39:24;;;;;;;;;;;19.30;46.20;;;;;;5116537;27;19912;-70
2022/10/28 12:42:12;;;;;;;;;;;19.30;46.30;;;;;;5094057;28;19912;-70
2022/10/28 12:44:38;;;;;;;;;;;19.30;47.50;;;;;;5125263;27;20365;-70
2022/10/28 12:47:05;;;;;;;;;;;19.30;46.60;;;;;;5112603;27;19914;-71
2022/10/28 12:49:49;;;;;;;;;;;19.30;46.10;;;;;;5117431;27;20358;-71
2022/10/28 12:52:26;;;;;;;;;;;19.30;47.20;;;;;;5118904;27;19907;-70
2022/10/28 12:55:06;;;;;;;;;;;19.20;46.20;;;;;;5083565;28;19928;-70
2022/10/28 12:57:33;;;;;;;;;;;19.30;46.90;;;;;;5105221;27;20377;-70
2022/10/28 13:00:05;;;;;;;;;;;19.20;46.30;;;;;;5096791;28;19947;-70
2022/10/28 13:02:34;;;;;;;;;;;19.20;46.10;;;;;;5116363;27;19911;-71
2022/10/28 13:05:01;;;;;;;;;;;19.20;46.20;;;;;;5115419;27;19955;-71
2022/10/28 13:07:40;;;;;;;;;;;19.20;46.20;;;;;;5107076;27;19911;-70
2022/10/28 13:10:12;;;;;;;;;;;19.20;46.10;;;;;;5114018;27;19986;-70
2022/10/28 13:12:47;;;;;;;;;;;19.20;45.70;;;;;;5117895;27;19957;-70
2022/10/28 13:15:32;;;;;;;;;;;19.30;45.60;;;;;;5114438;27;19919;-70
2022/10/28 13:18:21;;;;;;;;;;;19.30;45.40;;;;;;5127435;27;19915;-70
2022/10/28 13:20:48;;;;;;;;;;;19.30;46.10;;;;;;5107154;27;19960;-70
2022/10/28 13:23:20;;;;;;;;;;;19.20;45.70;;;;;;5123037;27;19955;-70
2022/10/28 13:25:47;;;;;;;;;;;19.20;46.20;;;;;;5110625;27;19911;-70
2022/10/28 13:28:17;;;;;;;;;;;19.20;46.40;;;;;;5124160;27;20003;-71
2022/10/28 13:33:23;;;;;;;;;;;19.20;47.00;;;;;;5108575;27;19931;-70
2022/10/28 13:35:50;;;;;;;;;;;19.20;47.00;;;;;;5111442;27;19922;-70
2022/10/28 13:38:18;;;;;;;;;;;19.20;46.80;;;;;;5117580;27;19916;-71
2022/10/28 13:40:45;;;;;;;;;;;19.20;47.20;;;;;;5114537;27;19908;-70
2022/10/28 13:43:21;;;;;;;;;;;19.20;47.00;;;;;;5125955;27;19998;-71
2022/10/28 13:45:48;;;;;;;;;;;19.20;47.80;;;;;;5101604;27;20010;-70
2022/10/28 13:48:30;;;;;;;;;;;19.20;47.10;;;;;;5124037;27;19907;-71
2022/10/28 13:51:09;;;;;;;;;;;19.20;47.90;;;;;;5115217;27;19918;-70
2022/10/28 13:53:44;;;;;;;;;;;19.20;46.40;;;;;;5114628;27;19915;-70
2022/10/28 13:56:26;;;;;;;;;;;19.20;46.70;;;;;;5122819;27;19927;-71
2022/10/28 13:59:00;;;;;;;;;;;19.10;46.90;;;;;;5106666;27;19947;-70
2022/10/28 14:01:38;;;;;;;;;;;19.10;47.00;;;;;;5094259;28;19976;-70
2022/10/28 14:04:05;;;;;;;;;;;19.10;47.00;;;;;;5113535;27;19919;-71
2022/10/28 14:06:32;;;;;;;;;;;19.10;47.20;;;;;;5113079;27;19956;-70
2022/10/28 14:08:59;;;;;;;;;;;19.10;46.90;;;;;;5097988;28;19973;-70
2022/10/28 14:11:31;;;;;;;;;;;19.10;47.20;;;;;;5112573;28;19911;-71
2022/10/28 14:14:01;;;;;;;;;;;19.10;46.90;;;;;;5097018;27;20450;-70
2022/10/28 14:16:29;;;;;;;;;;;19.10;47.20;;;;;;5121363;27;19961;-70
2022/10/28 14:19:12;;;;;;;;;;;19.10;46.90;;;;;;5112193;28;19972;-71
2022/10/28 14:21:39;;;;;;;;;;;19.20;48.00;;;;;;5118390;27;19908;-71
2022/10/28 14:24:09;;;;;;;;;;;19.20;47.60;;;;;;5117499;27;20250;-71
2022/10/28 14:26:56;;;;;;;;;;;19.20;47.10;;;;;;5117746;27;20357;-71
2022/10/28 14:29:23;;;;;;;;;;;19.20;47.40;;;;;;5075243;27;19915;-70
2022/10/28 14:31:49;;;;;;;;;;;19.20;47.10;;;;;;5118018;27;19912;-70
2022/10/28 14:34:17;;;;;;;;;;;19.10;47.20;;;;;;5090443;28;19919;-70
2022/10/28 14:36:57;;;;;;;;;;;19.20;47.60;;;;;;5096472;28;20421;-70
2022/10/28 14:39:27;;;;;;;;;;;19.20;47.50;;;;;;5105646;28;20029;-70
2022/10/28 14:41:59;;;;;;;;;;;19.20;47.20;;;;;;5105750;28;19919;-70
2022/10/28 14:44:41;;;;;;;;;;;19.20;47.00;;;;;;5107329;28;20277;-70
2022/10/28 14:47:17;;;;;;;;;;;19.20;47.50;;;;;;5108215;28;19916;-70
2022/10/28 14:49:56;;;;;;;;;;;19.20;47.90;;;;;;5079042;28;19913;-71
2022/10/28 14:52:23;;;;;;;;;;;19.20;47.10;;;;;;5092263;28;19916;-70
2022/10/28 14:54:54;;;;;;;;;;;19.10;47.60;;;;;;5091523;28;19920;-71
2022/10/28 14:57:25;;;;;;;;;;;19.10;47.60;;;;;;5082940;28;19956;-70
2022/10/28 14:59:52;;;;;;;;;;;19.20;47.90;;;;;;5089833;28;19927;-70
2022/10/28 15:04:44;;;;;;;;;;;19.20;48.30;;;;;;5100045;28;20002;-70
2022/10/28 15:07:17;;;;;;;;;;;19.10;48.90;;;;;;5096814;28;20002;-70
2022/10/28 15:09:44;;;;;;;;;;;19.20;48.90;;;;;;5129334;27;19908;-71
2022/10/28 15:12:12;;;;;;;;;;;19.10;49.20;;;;;;5121793;27;19912;-70
2022/10/28 15:14:44;;;;;;;;;;;19.10;49.20;;;;;;5124326;27;20003;-71
2022/10/28 15:17:12;;;;;;;;;;;19.00;50.00;;;;;;5103810;27;19919;-71
2022/10/28 15:19:39;;;;;;;;;;;19.00;49.90;;;;;;5109322;27;19907;-71
2022/10/28 15:22:11;;;;;;;;;;;19.00;50.30;;;;;;5123064;27;21311;-71
2022/10/28 15:24:38;;;;;;;;;;;19.00;50.50;;;;;;5113124;27;19916;-71
2022/10/28 15:27:05;;;;;;;;;;;19.00;49.80;;;;;;5106117;28;19916;-71
2022/10/28 15:29:32;;;;;;;;;;;19.00;50.10;;;;;;5130448;27;19931;-70
2022/10/28 15:32:16;;;;;;;;;;;18.90;50.30;;;;;;5125921;27;20421;-71
2022/10/28 15:34:43;;;;;;;;;;;18.90;50.60;;;;;;5119189;27;19923;-70
2022/10/28 15:37:09;;;;;;;;;;;18.80;50.40;;;;;;5119073;27;19918;-70
2022/10/28 15:39:37;;;;;;;;;;;18.80;50.50;;;;;;5114323;27;19998;-71
2022/10/28 15:42:05;;;;;;;;;;;18.80;49.80;;;;;;5129302;27;19968;-70
2022/10/28 15:44:33;;;;;;;;;;;18.80;49.50;;;;;;5098303;27;20030;-70
2022/10/28 15:47:00;;;;;;;;;;;18.80;49.90;;;;;;5125455;27;19915;-71
2022/10/28 15:49:52;;;;;;;;;;;18.80;50.00;;;;;;5135303;27;19907;-70
2022/10/28 15:52:28;;;;;;;;;;;18.70;49.90;;;;;;5114700;27;19911;-70
2022/10/28 15:54:55;;;;;;;;;;;18.80;50.70;;;;;;5094637;28;19924;-70
2022/10/28 15:57:22;;;;;;;;;;;18.80;50.90;;;;;;5097529;27;19918;-70
2022/10/28 15:59:51;;;;;;;;;;;18.80;50.70;;;;;;5115782;27;19908;-70
2022/10/28 16:02:35;;;;;;;;;;;18.80;51.40;;;;;;5099178;27;20018;-70
2022/10/28 16:05:02;;;;;;;;;;;18.70;51.60;;;;;;5099488;27;19963;-70
2022/10/28 16:07:28;;;;;;;;;;;18.80;51.20;;;;;;5112687;27;19912;-70
2022/10/28 16:09:56;;;;;;;;;;;18.80;51.60;;;;;;5115045;27;19920;-70
2022/10/28 16:12:23;;;;;;;;;;;18.70;52.10;;;;;;5117539;27;19968;-71
2022/10/28 16:14:56;;;;;;;;;;;18.70;51.80;;;;;;5116093;27;19919;-70
2022/10/28 16:17:25;;;;;;;;;;;18.60;52.60;;;;;;5099312;27;19922;-70
2022/10/28 16:19:58;;;;;;;;;;;18.60;52.00;;;;;;5099605;28;19954;-70
2022/10/28 16:22:25;;;;;;;;;;;18.60;52.30;;;;;;5130290;27;19951;-70
2022/10/28 16:24:52;;;;;;;;;;;18.60;51.20;;;;;;5110244;27;19912;-70
2022/10/28 16:27:20;;;;;;;;;;;18.60;51.10;;;;;;5116669;27;19919;-70
2022/10/28 16:29:46;;;;;;;;;;;18.60;51.60;;;;;;5115883;27;19919;-70
2022/10/28 16:32:13;;;;;;;;;;;18.60;51.20;;;;;;5098666;28;20383;-70
2022/10/28 16:37:17;;;;;;;;;;;18.50;51.50;;;;;;5116087;27;19919;-70
2022/10/28 16:39:44;;;;;;;;;;;18.50;52.80;;;;;;5103054;27;19915;-71
2022/10/28 16:42:10;;;;;;;;;;;18.50;52.00;;;;;;5113823;28;19914;-70
2022/10/28 16:44:37;;;;;;;;;;;18.50;51.70;;;;;;5116744;27;19922;-70
2022/10/28 16:47:13;;;;;;;;;;;18.50;52.50;;;;;;5113103;27;20007;-71
2022/10/28 16:49:40;;;;;;;;;;;18.40;52.70;;;;;;5122485;27;19907;-70
2022/10/28 16:52:16;;;;;;;;;;;18.40;52.70;;;;;;5120441;27;19915;-70
2022/10/28 16:54:43;;;;;;;;;;;18.40;52.90;;;;;;5098736;27;19926;-70
2022/10/28 16:57:09;;;;;;;;;;;18.30;52.60;;;;;;5127195;27;19908;-70
2022/10/28 16:59:36;;;;;;;;;;;18.40;52.80;;;;;;5114756;27;20263;-71
2022/10/28 17:02:02;;;;;;;;;;;18.30;53.00;;;;;;5109744;27;19908;-70
2022/10/28 17:04:29;;;;;;;;;;;18.30;53.30;;;;;;5112891;27;19912;-70
2022/10/28 17:06:56;;;;;;;;;;;18.30;53.20;;;;;;5110986;27;19911;-71
2022/10/28 17:09:22;;;;;;;;;;;18.20;53.40;;;;;;5116490;27;19965;-70
2022/10/28 17:11:49;;;;;;;;;;;18.20;54.00;;;;;;5114844;27;19912;-70
2022/10/28 17:14:16;;;;;;;;;;;18.20;53.60;;;;;;5096320;28;19916;-70
2022/10/28 17:16:42;;;;;;;;;;;18.20;54.10;;;;;;5117017;27;20422;-70
2022/10/28 17:19:09;;;;;;;;;;;18.10;54.20;;;;;;5121896;27;19964;-71
2022/10/28 17:21:35;;;;;;;;;;;18.10;54.90;;;;;;5118492;27;20369;-70
2022/10/28 17:24:03;;;;;;;;;;;18.10;54.50;;;;;;5122985;27;19911;-71
2022/10/28 17:26:29;;;;;;;;;;;18.00;54.90;;;;;;5107338;28;20041;-70
2022/10/28 17:28:56;;;;;;;;;;;18.00;54.70;;;;;;5124287;27;19942;-70
2022/10/28 17:31:24;;;;;;;;;;;17.90;55.30;;;;;;5120691;27;19911;-71
2022/10/28 17:33:54;;;;;;;;;;;17.90;55.00;;;;;;5115935;27;20287;-70
2022/10/28 17:36:22;;;;;;;;;;;17.90;55.30;;;;;;5110545;27;19930;-70
2022/10/28 17:38:48;;;;;;;;;;;17.90;55.60;;;;;;5124482;27;20010;-70
2022/10/28 17:41:15;;;;;;;;;;;17.80;55.50;;;;;;5120476;27;19907;-70
2022/10/28 17:43:41;;;;;;;;;;;17.80;55.40;;;;;;5118195;27;19943;-70
2022/10/28 17:46:08;;;;;;;;;;;17.80;55.50;;;;;;5117416;27;20385;-70
2022/10/28 17:48:35;;;;;;;;;;;17.80;55.10;;;;;;5124192;27;19931;-71
2022/10/28 17:51:02;;;;;;;;;;;17.80;55.30;;;;;;5129024;27;19907;-70
2022/10/28 17:53:28;;;;;;;;;;;17.80;55.80;;;;;;5117750;27;20262;-70
2022/10/28 17:55:58;;;;;;;;;;;17.80;55.30;;;;;;5125377;27;19916;-70
2022/10/28 17:58:25;;;;;;;;;;;17.80;55.10;;;;;;5091877;27;20018;-71
2022/10/28 18:00:58;;;;;;;;;;;17.80;55.70;;;;;;5113650;27;20007;-70
2022/10/28 18:03:25;;;;;;;;;;;17.70;56.10;;;;;;5113302;27;20332;-70
2022/10/28 18:05:51;;;;;;;;;;;17.70;56.60;;;;;;5112697;27;19912;-69
2022/10/28 18:08:19;;;;;;;;;;;17.70;56.50;;;;;;5104326;27;20438;-70
2022/10/28 18:10:55;;;;;;;;;;;17.70;56.50;;;;;;5111290;27;19942;-71
2022/10/28 18:13:29;;;;;;;;;;;17.60;56.40;;;;;;5113647;27;19912;-70
2022/10/28 18:15:56;;;;;;;;;;;17.60;57.00;;;;;;5114139;27;20011;-70
2022/10/28 18:18:25;;;;;;;;;;;17.60;57.00;;;;;;5106046;28;19916;-70
2022/10/28 18:20:52;;;;;;;;;;;17.50;57.40;;;;;;5100713;28;19962;-70
2022/10/28 18:23:19;;;;;;;;;;;17.50;58.20;;;;;;5109498;28;19968;-70
2022/10/28 18:25:46;;;;;;;;;;;17.50;58.70;;;;;;5107171;28;19911;-69
2022/10/28 18:28:12;;;;;;;;;;;17.40;57.70;;;;;;5102241;28;19916;-70
2022/10/28 18:30:39;;;;;;;;;;;17.40;58.50;;;;;;5091752;28;19912;-70
2022/10/28 18:33:05;;;;;;;;;;;17.30;57.20;;;;;;5105646;28;20427;-69
2022/10/28 18:35:33;;;;;;;;;;;17.30;58.00;;;;;;5100016;28;20399;-69
2022/10/28 18:38:00;;;;;;;;;;;17.30;58.40;;;;;;5081991;28;19924;-70
2022/10/28 18:40:26;;;;;;;;;;;17.30;58.80;;;;;;5085706;28;19928;-71
2022/10/28 18:42:53;;;;;;;;;;;17.30;58.40;;;;;;5082059;28;19909;-72
2022/10/28 18:45:19;;;;;;;;;;;17.30;58.80;;;;;;5085755;28;19912;-71
2022/10/28 18:47:46;;;;;;;;;;;17.20;59.20;;;;;;5088604;28;19912;-71
2022/10/28 18:50:13;;;;;;;;;;;17.20;59.10;;;;;;5091925;28;19912;-71
2022/10/28 18:52:39;;;;;;;;;;;17.20;58.50;;;;;;5091945;28;19908;-71
2022/10/28 18:55:06;;;;;;;;;;;17.20;58.50;;;;;;5090858;28;19958;-71
2022/10/28 18:57:32;;;;;;;;;;;17.20;57.70;;;;;;5101631;28;19971;-71
2022/10/28 18:59:59;;;;;;;;;;;17.30;58.00;;;;;;5089928;28;19919;-69
2022/10/28 19:02:27;;;;;;;;;;;17.20;58.20;;;;;;5091066;28;19912;-69
2022/10/28 19:04:54;;;;;;;;;;;17.20;58.20;;;;;;5088809;28;20364;-70
2022/10/28 19:07:21;;;;;;;;;;;17.30;57.70;;;;;;5078665;28;20328;-70